sensor_id;sensor_type;location;lat;lon;timestamp;P1;durP1;ratioP1;P2;durP2;ratioP2
61204;SDS011;47068;55.780;37.520;2023-05-29T00:00:32;414.73;;;385.85;;
61204;SDS011;47068;55.780;37.520;2023-05-29T00:02:58;364.75;;;338.98;;
61204;SDS011;47068;55.780;37.520;2023-05-29T00:05:24;398.65;;;371.63;;
61204;SDS011;47068;55.780;37.520;2023-05-29T00:07:49;407.40;;;379.13;;
61204;SDS011;47068;55.780;37.520;2023-05-29T00:10:15;426.30;;;390.25;;
61204;SDS011;47068;55.780;37.520;2023-05-29T00:12:41;401.38;;;364.70;;
61204;SDS011;47068;55.780;37.520;2023-05-29T00:15:07;406.92;;;368.25;;
61204;SDS011;47068;55.780;37.520;2023-05-29T00:17:35;405.33;;;367.43;;
61204;SDS011;47068;55.780;37.520;2023-05-29T00:20:01;447.08;;;401.58;;
61204;SDS011;47068;55.780;37.520;2023-05-29T00:22:45;547.73;;;370.77;;
61204;SDS011;47068;55.780;37.520;2023-05-29T00:25:11;541.17;;;362.73;;
61204;SDS011;47068;55.780;37.520;2023-05-29T00:27:36;523.90;;;381.30;;
61204;SDS011;47068;55.780;37.520;2023-05-29T00:30:02;442.70;;;385.50;;
61204;SDS011;47068;55.780;37.520;2023-05-29T00:32:28;490.93;;;359.73;;
61204;SDS011;47068;55.780;37.520;2023-05-29T00:34:54;456.03;;;382.00;;
61204;SDS011;47068;55.780;37.520;2023-05-29T00:37:20;380.53;;;345.07;;
61204;SDS011;47068;55.780;37.520;2023-05-29T00:39:49;425.97;;;386.43;;
61204;SDS011;47068;55.780;37.520;2023-05-29T00:42:15;393.17;;;355.83;;
61204;SDS011;47068;55.780;37.520;2023-05-29T00:44:40;410.65;;;369.42;;
61204;SDS011;47068;55.780;37.520;2023-05-29T00:47:06;483.45;;;390.38;;
61204;SDS011;47068;55.780;37.520;2023-05-29T00:49:32;467.77;;;415.15;;
61204;SDS011;47068;55.780;37.520;2023-05-29T00:52:00;404.80;;;380.37;;
61204;SDS011;47068;55.780;37.520;2023-05-29T00:54:28;136.60;;;128.52;;
61204;SDS011;47068;55.780;37.520;2023-05-29T00:56:59;62.10;;;58.40;;
61204;SDS011;47068;55.780;37.520;2023-05-29T00:59:26;325.90;;;296.63;;
61204;SDS011;47068;55.780;37.520;2023-05-29T01:01:55;616.53;;;454.80;;
61204;SDS011;47068;55.780;37.520;2023-05-29T01:04:20;558.22;;;466.00;;
61204;SDS011;47068;55.780;37.520;2023-05-29T01:06:48;685.57;;;466.50;;
61204;SDS011;47068;55.780;37.520;2023-05-29T01:09:14;750.67;;;433.17;;
61204;SDS011;47068;55.780;37.520;2023-05-29T01:14:33;578.63;;;429.05;;
61204;SDS011;47068;55.780;37.520;2023-05-29T01:34:13;532.47;;;376.37;;
61204;SDS011;47068;55.780;37.520;2023-05-29T01:36:38;583.17;;;466.43;;
61204;SDS011;47068;55.780;37.520;2023-05-29T01:39:04;583.00;;;415.30;;
61204;SDS011;47068;55.780;37.520;2023-05-29T01:41:30;393.97;;;359.03;;
61204;SDS011;47068;55.780;37.520;2023-05-29T01:43:57;431.27;;;390.50;;
61204;SDS011;47068;55.780;37.520;2023-05-29T01:46:24;454.00;;;412.27;;
61204;SDS011;47068;55.780;37.520;2023-05-29T01:48:50;453.10;;;408.25;;
61204;SDS011;47068;55.780;37.520;2023-05-29T01:51:17;519.13;;;465.93;;
61204;SDS011;47068;55.780;37.520;2023-05-29T01:53:43;476.45;;;428.77;;
61204;SDS011;47068;55.780;37.520;2023-05-29T01:56:09;538.53;;;461.00;;
61204;SDS011;47068;55.780;37.520;2023-05-29T01:58:35;375.70;;;344.58;;
61204;SDS011;47068;55.780;37.520;2023-05-29T02:01:02;431.80;;;389.57;;
61204;SDS011;47068;55.780;37.520;2023-05-29T02:03:31;486.17;;;434.20;;
61204;SDS011;47068;55.780;37.520;2023-05-29T02:05:57;416.83;;;381.40;;
61204;SDS011;47068;55.780;37.520;2023-05-29T02:08:23;496.33;;;449.83;;
61204;SDS011;47068;55.780;37.520;2023-05-29T02:10:49;498.73;;;452.08;;
61204;SDS011;47068;55.780;37.520;2023-05-29T02:13:14;463.60;;;424.05;;
61204;SDS011;47068;55.780;37.520;2023-05-29T02:15:41;473.45;;;427.08;;
61204;SDS011;47068;55.780;37.520;2023-05-29T02:18:09;487.10;;;436.15;;
61204;SDS011;47068;55.780;37.520;2023-05-29T02:20:38;309.00;;;283.30;;
61204;SDS011;47068;55.780;37.520;2023-05-29T02:23:04;483.42;;;431.70;;
61204;SDS011;47068;55.780;37.520;2023-05-29T02:25:30;574.40;;;391.63;;
61204;SDS011;47068;55.780;37.520;2023-05-29T02:27:55;529.03;;;366.23;;
61204;SDS011;47068;55.780;37.520;2023-05-29T02:30:21;550.27;;;382.60;;
61204;SDS011;47068;55.780;37.520;2023-05-29T02:32:46;622.70;;;397.95;;
61204;SDS011;47068;55.780;37.520;2023-05-29T02:35:12;485.87;;;431.23;;
61204;SDS011;47068;55.780;37.520;2023-05-29T02:37:42;660.27;;;503.03;;
61204;SDS011;47068;55.780;37.520;2023-05-29T02:40:07;666.10;;;476.42;;
61204;SDS011;47068;55.780;37.520;2023-05-29T02:42:33;531.53;;;459.52;;
61204;SDS011;47068;55.780;37.520;2023-05-29T02:44:59;670.13;;;455.63;;
61204;SDS011;47068;55.780;37.520;2023-05-29T02:47:25;544.17;;;392.20;;
61204;SDS011;47068;55.780;37.520;2023-05-29T02:49:50;586.23;;;445.60;;
61204;SDS011;47068;55.780;37.520;2023-05-29T02:52:15;501.27;;;439.30;;
61204;SDS011;47068;55.780;37.520;2023-05-29T02:54:41;588.70;;;437.10;;
61204;SDS011;47068;55.780;37.520;2023-05-29T02:57:06;604.63;;;405.10;;
61204;SDS011;47068;55.780;37.520;2023-05-29T02:59:32;631.65;;;393.33;;
61204;SDS011;47068;55.780;37.520;2023-05-29T03:01:57;542.17;;;378.50;;
61204;SDS011;47068;55.780;37.520;2023-05-29T03:04:23;539.67;;;404.43;;
61204;SDS011;47068;55.780;37.520;2023-05-29T03:06:48;528.63;;;419.57;;
61204;SDS011;47068;55.780;37.520;2023-05-29T03:09:14;534.57;;;393.30;;
61204;SDS011;47068;55.780;37.520;2023-05-29T03:11:41;395.33;;;374.50;;
61204;SDS011;47068;55.780;37.520;2023-05-29T03:14:07;464.95;;;428.08;;
61204;SDS011;47068;55.780;37.520;2023-05-29T03:16:33;445.70;;;411.33;;
61204;SDS011;47068;55.780;37.520;2023-05-29T03:19:01;482.63;;;444.20;;
61204;SDS011;47068;55.780;37.520;2023-05-29T03:21:26;453.88;;;422.80;;
61204;SDS011;47068;55.780;37.520;2023-05-29T03:23:52;466.95;;;431.70;;
61204;SDS011;47068;55.780;37.520;2023-05-29T03:26:17;516.47;;;464.65;;
61204;SDS011;47068;55.780;37.520;2023-05-29T03:28:43;472.38;;;430.42;;
61204;SDS011;47068;55.780;37.520;2023-05-29T03:31:08;529.13;;;474.80;;
61204;SDS011;47068;55.780;37.520;2023-05-29T03:33:35;473.10;;;431.73;;
61204;SDS011;47068;55.780;37.520;2023-05-29T03:36:01;448.42;;;422.70;;
61204;SDS011;47068;55.780;37.520;2023-05-29T03:38:26;519.80;;;468.60;;
61204;SDS011;47068;55.780;37.520;2023-05-29T03:40:51;504.30;;;424.27;;
61204;SDS011;47068;55.780;37.520;2023-05-29T03:43:17;524.97;;;469.42;;
61204;SDS011;47068;55.780;37.520;2023-05-29T03:45:42;565.20;;;432.25;;
61204;SDS011;47068;55.780;37.520;2023-05-29T03:48:08;510.13;;;455.13;;
61204;SDS011;47068;55.780;37.520;2023-05-29T03:50:33;527.83;;;437.50;;
61204;SDS011;47068;55.780;37.520;2023-05-29T03:52:59;610.33;;;480.83;;
61204;SDS011;47068;55.780;37.520;2023-05-29T03:55:26;607.10;;;439.07;;
61204;SDS011;47068;55.780;37.520;2023-05-29T03:57:53;624.70;;;453.60;;
61204;SDS011;47068;55.780;37.520;2023-05-29T04:00:18;617.67;;;506.10;;
61204;SDS011;47068;55.780;37.520;2023-05-29T04:02:44;491.07;;;437.27;;
61204;SDS011;47068;55.780;37.520;2023-05-29T04:05:09;528.40;;;486.48;;
61204;SDS011;47068;55.780;37.520;2023-05-29T04:07:37;545.13;;;509.52;;
61204;SDS011;47068;55.780;37.520;2023-05-29T04:10:03;502.20;;;462.55;;
61204;SDS011;47068;55.780;37.520;2023-05-29T04:12:30;492.13;;;458.42;;
61204;SDS011;47068;55.780;37.520;2023-05-29T04:14:56;542.75;;;504.20;;
61204;SDS011;47068;55.780;37.520;2023-05-29T04:17:22;484.75;;;454.17;;
61204;SDS011;47068;55.780;37.520;2023-05-29T04:19:47;571.08;;;531.75;;
61204;SDS011;47068;55.780;37.520;2023-05-29T04:22:13;435.30;;;412.08;;
61204;SDS011;47068;55.780;37.520;2023-05-29T04:24:39;597.25;;;547.22;;
61204;SDS011;47068;55.780;37.520;2023-05-29T04:27:05;452.63;;;426.15;;
61204;SDS011;47068;55.780;37.520;2023-05-29T04:29:30;302.23;;;286.05;;
61204;SDS011;47068;55.780;37.520;2023-05-29T04:31:59;276.73;;;261.38;;
61204;SDS011;47068;55.780;37.520;2023-05-29T04:34:28;410.70;;;388.88;;
61204;SDS011;47068;55.780;37.520;2023-05-29T04:36:55;497.55;;;466.73;;
61204;SDS011;47068;55.780;37.520;2023-05-29T04:39:23;659.80;;;606.00;;
61204;SDS011;47068;55.780;37.520;2023-05-29T04:41:49;650.38;;;606.55;;
61204;SDS011;47068;55.780;37.520;2023-05-29T04:44:16;597.58;;;565.63;;
61204;SDS011;47068;55.780;37.520;2023-05-29T04:49:09;634.00;;;593.58;;
61204;SDS011;47068;55.780;37.520;2023-05-29T04:54:01;638.03;;;597.90;;
61204;SDS011;47068;55.780;37.520;2023-05-29T04:56:27;572.03;;;539.15;;
61204;SDS011;47068;55.780;37.520;2023-05-29T04:58:53;666.50;;;622.20;;
61204;SDS011;47068;55.780;37.520;2023-05-29T05:01:19;638.50;;;596.97;;
61204;SDS011;47068;55.780;37.520;2023-05-29T05:03:44;564.35;;;533.30;;
61204;SDS011;47068;55.780;37.520;2023-05-29T05:06:10;517.25;;;489.73;;
61204;SDS011;47068;55.780;37.520;2023-05-29T05:08:37;623.40;;;590.20;;
61204;SDS011;47068;55.780;37.520;2023-05-29T05:11:03;490.23;;;462.08;;
61204;SDS011;47068;55.780;37.520;2023-05-29T05:13:29;561.97;;;529.97;;
61204;SDS011;47068;55.780;37.520;2023-05-29T05:18:20;678.17;;;640.60;;
61204;SDS011;47068;55.780;37.520;2023-05-29T05:23:11;395.30;;;370.80;;
61204;SDS011;47068;55.780;37.520;2023-05-29T05:28:03;377.48;;;353.08;;
61204;SDS011;47068;55.780;37.520;2023-05-29T05:30:29;428.58;;;401.52;;
61204;SDS011;47068;55.780;37.520;2023-05-29T05:32:55;603.10;;;568.08;;
61204;SDS011;47068;55.780;37.520;2023-05-29T05:35:21;464.02;;;433.98;;
61204;SDS011;47068;55.780;37.520;2023-05-29T05:40:12;499.05;;;469.23;;
61204;SDS011;47068;55.780;37.520;2023-05-29T05:45:05;792.30;;;737.78;;
61204;SDS011;47068;55.780;37.520;2023-05-29T05:47:32;915.20;;;848.80;;
61204;SDS011;47068;55.780;37.520;2023-05-29T05:49:57;229.80;;;212.52;;
61204;SDS011;47068;55.780;37.520;2023-05-29T05:52:23;173.90;;;159.38;;
61204;SDS011;47068;55.780;37.520;2023-05-29T05:54:51;230.55;;;212.35;;
61204;SDS011;47068;55.780;37.520;2023-05-29T05:57:16;268.33;;;248.15;;
61204;SDS011;47068;55.780;37.520;2023-05-29T05:59:43;894.30;;;831.30;;
61204;SDS011;47068;55.780;37.520;2023-05-29T06:02:09;911.50;;;847.53;;
61204;SDS011;47068;55.780;37.520;2023-05-29T06:04:38;887.22;;;827.80;;
61204;SDS011;47068;55.780;37.520;2023-05-29T06:07:03;896.47;;;832.90;;
61204;SDS011;47068;55.780;37.520;2023-05-29T06:09:29;874.55;;;816.78;;
61204;SDS011;47068;55.780;37.520;2023-05-29T06:11:54;880.38;;;822.10;;
61204;SDS011;47068;55.780;37.520;2023-05-29T06:14:20;935.13;;;876.85;;
61204;SDS011;47068;55.780;37.520;2023-05-29T06:16:45;911.88;;;851.95;;
61204;SDS011;47068;55.780;37.520;2023-05-29T06:19:11;1038.80;;;950.00;;
61204;SDS011;47068;55.780;37.520;2023-05-29T06:21:49;1072.18;;;982.83;;
61204;SDS011;47068;55.780;37.520;2023-05-29T06:24:15;1382.05;;;889.85;;
61204;SDS011;47068;55.780;37.520;2023-05-29T06:26:40;713.38;;;666.92;;
61204;SDS011;47068;55.780;37.520;2023-05-29T06:29:06;818.90;;;767.95;;
61204;SDS011;47068;55.780;37.520;2023-05-29T06:31:32;865.28;;;811.50;;
61204;SDS011;47068;55.780;37.520;2023-05-29T06:33:59;189.85;;;172.85;;
61204;SDS011;47068;55.780;37.520;2023-05-29T06:36:24;254.70;;;232.35;;
61204;SDS011;47068;55.780;37.520;2023-05-29T06:38:50;203.88;;;185.80;;
61204;SDS011;47068;55.780;37.520;2023-05-29T06:41:17;75.57;;;68.90;;
61204;SDS011;47068;55.780;37.520;2023-05-29T06:43:42;23.55;;;21.30;;
61204;SDS011;47068;55.780;37.520;2023-05-29T06:46:08;39.28;;;36.30;;
61204;SDS011;47068;55.780;37.520;2023-05-29T06:48:35;106.82;;;97.20;;
61204;SDS011;47068;55.780;37.520;2023-05-29T06:51:01;178.25;;;160.60;;
61204;SDS011;47068;55.780;37.520;2023-05-29T06:53:34;275.95;;;250.00;;
61204;SDS011;47068;55.780;37.520;2023-05-29T06:56:00;172.85;;;158.05;;
61204;SDS011;47068;55.780;37.520;2023-05-29T06:58:26;73.00;;;66.97;;
61204;SDS011;47068;55.780;37.520;2023-05-29T07:04:13;111.38;;;101.25;;
61204;SDS011;47068;55.780;37.520;2023-05-29T07:06:38;35.35;;;32.65;;
61204;SDS011;47068;55.780;37.520;2023-05-29T07:09:04;56.30;;;52.00;;
61204;SDS011;47068;55.780;37.520;2023-05-29T07:11:30;419.98;;;375.92;;
61204;SDS011;47068;55.780;37.520;2023-05-29T07:13:56;161.82;;;145.90;;
61204;SDS011;47068;55.780;37.520;2023-05-29T07:16:21;175.32;;;158.30;;
61204;SDS011;47068;55.780;37.520;2023-05-29T07:18:47;121.95;;;110.75;;
61204;SDS011;47068;55.780;37.520;2023-05-29T07:21:12;45.90;;;42.10;;
61204;SDS011;47068;55.780;37.520;2023-05-29T07:23:39;47.45;;;43.90;;
61204;SDS011;47068;55.780;37.520;2023-05-29T07:26:04;123.63;;;112.70;;
61204;SDS011;47068;55.780;37.520;2023-05-29T07:28:30;75.20;;;68.75;;
61204;SDS011;47068;55.780;37.520;2023-05-29T07:30:55;33.67;;;31.02;;
61204;SDS011;47068;55.780;37.520;2023-05-29T07:33:21;37.05;;;34.08;;
61204;SDS011;47068;55.780;37.520;2023-05-29T07:35:50;113.22;;;102.55;;
61204;SDS011;47068;55.780;37.520;2023-05-29T07:38:15;27.05;;;24.63;;
61204;SDS011;47068;55.780;37.520;2023-05-29T07:40:41;13.70;;;12.55;;
61204;SDS011;47068;55.780;37.520;2023-05-29T07:43:06;27.45;;;24.95;;
61204;SDS011;47068;55.780;37.520;2023-05-29T07:45:32;22.50;;;20.48;;
61204;SDS011;47068;55.780;37.520;2023-05-29T07:47:57;67.88;;;61.63;;
61204;SDS011;47068;55.780;37.520;2023-05-29T07:50:23;52.10;;;46.85;;
61204;SDS011;47068;55.780;37.520;2023-05-29T07:52:49;35.15;;;31.83;;
61204;SDS011;47068;55.780;37.520;2023-05-29T07:55:15;31.90;;;28.95;;
61204;SDS011;47068;55.780;37.520;2023-05-29T07:57:41;29.05;;;26.48;;
61204;SDS011;47068;55.780;37.520;2023-05-29T08:00:07;20.45;;;18.30;;
61204;SDS011;47068;55.780;37.520;2023-05-29T08:02:33;17.48;;;15.95;;
61204;SDS011;47068;55.780;37.520;2023-05-29T08:05:01;16.58;;;15.20;;
61204;SDS011;47068;55.780;37.520;2023-05-29T08:07:28;18.70;;;16.95;;
61204;SDS011;47068;55.780;37.520;2023-05-29T08:09:54;15.32;;;13.88;;
61204;SDS011;47068;55.780;37.520;2023-05-29T08:12:19;7.80;;;7.22;;
61204;SDS011;47068;55.780;37.520;2023-05-29T08:14:45;10.88;;;10.10;;
61204;SDS011;47068;55.780;37.520;2023-05-29T08:17:10;11.45;;;10.60;;
61204;SDS011;47068;55.780;37.520;2023-05-29T08:19:36;6.55;;;6.07;;
61204;SDS011;47068;55.780;37.520;2023-05-29T08:22:02;230.88;;;206.45;;
61204;SDS011;47068;55.780;37.520;2023-05-29T08:24:27;78.70;;;71.90;;
61204;SDS011;47068;55.780;37.520;2023-05-29T08:26:53;18.05;;;16.33;;
61204;SDS011;47068;55.780;37.520;2023-05-29T08:29:19;15.85;;;14.27;;
61204;SDS011;47068;55.780;37.520;2023-05-29T08:31:44;26.80;;;24.63;;
61204;SDS011;47068;55.780;37.520;2023-05-29T08:34:11;10.60;;;9.82;;
61204;SDS011;47068;55.780;37.520;2023-05-29T08:36:36;13.45;;;12.35;;
61204;SDS011;47068;55.780;37.520;2023-05-29T08:39:02;9.98;;;9.18;;
61204;SDS011;47068;55.780;37.520;2023-05-29T08:41:28;6.22;;;5.65;;
61204;SDS011;47068;55.780;37.520;2023-05-29T08:44:03;8.93;;;8.23;;
61204;SDS011;47068;55.780;37.520;2023-05-29T08:46:31;14.25;;;13.20;;
61204;SDS011;47068;55.780;37.520;2023-05-29T08:48:58;13.38;;;12.35;;
61204;SDS011;47068;55.780;37.520;2023-05-29T08:51:27;17.45;;;16.08;;
61204;SDS011;47068;55.780;37.520;2023-05-29T08:53:56;26.77;;;23.90;;
61204;SDS011;47068;55.780;37.520;2023-05-29T08:56:22;32.50;;;30.13;;
61204;SDS011;47068;55.780;37.520;2023-05-29T08:58:48;28.80;;;26.55;;
61204;SDS011;47068;55.780;37.520;2023-05-29T09:01:15;43.42;;;40.25;;
61204;SDS011;47068;55.780;37.520;2023-05-29T09:03:41;47.85;;;44.17;;
61204;SDS011;47068;55.780;37.520;2023-05-29T09:06:07;49.25;;;45.53;;
61204;SDS011;47068;55.780;37.520;2023-05-29T09:08:33;81.78;;;75.47;;
61204;SDS011;47068;55.780;37.520;2023-05-29T09:10:59;118.88;;;108.90;;
61204;SDS011;47068;55.780;37.520;2023-05-29T09:13:25;133.80;;;122.78;;
61204;SDS011;47068;55.780;37.520;2023-05-29T09:16:02;104.75;;;96.03;;
61204;SDS011;47068;55.780;37.520;2023-05-29T09:18:31;83.82;;;77.45;;
61204;SDS011;47068;55.780;37.520;2023-05-29T09:20:58;74.05;;;68.03;;
61204;SDS011;47068;55.780;37.520;2023-05-29T09:23:25;64.30;;;59.13;;
61204;SDS011;47068;55.780;37.520;2023-05-29T09:25:52;76.07;;;69.78;;
61204;SDS011;47068;55.780;37.520;2023-05-29T09:28:19;65.13;;;59.85;;
61204;SDS011;47068;55.780;37.520;2023-05-29T09:33:56;148.15;;;136.10;;
61204;SDS011;47068;55.780;37.520;2023-05-29T09:36:27;116.20;;;106.63;;
61204;SDS011;47068;55.780;37.520;2023-05-29T09:41:21;143.15;;;132.13;;
61204;SDS011;47068;55.780;37.520;2023-05-29T09:43:49;181.38;;;167.38;;
61204;SDS011;47068;55.780;37.520;2023-05-29T09:48:44;231.98;;;214.70;;
61204;SDS011;47068;55.780;37.520;2023-05-29T09:51:22;205.30;;;189.43;;
61204;SDS011;47068;55.780;37.520;2023-05-29T09:53:49;193.77;;;178.65;;
61204;SDS011;47068;55.780;37.520;2023-05-29T09:56:18;173.25;;;159.77;;
61204;SDS011;47068;55.780;37.520;2023-05-29T09:58:49;168.25;;;155.20;;
61204;SDS011;47068;55.780;37.520;2023-05-29T10:01:16;173.98;;;160.18;;
61204;SDS011;47068;55.780;37.520;2023-05-29T10:06:10;277.88;;;251.77;;
61204;SDS011;47068;55.780;37.520;2023-05-29T10:08:43;165.07;;;152.45;;
61204;SDS011;47068;55.780;37.520;2023-05-29T10:11:14;384.17;;;358.83;;
61204;SDS011;47068;55.780;37.520;2023-05-29T10:13:44;420.67;;;393.80;;
61204;SDS011;47068;55.780;37.520;2023-05-29T10:16:14;451.92;;;423.77;;
61204;SDS011;47068;55.780;37.520;2023-05-29T10:18:44;450.17;;;421.73;;
61204;SDS011;47068;55.780;37.520;2023-05-29T10:21:18;391.95;;;366.23;;
61204;SDS011;47068;55.780;37.520;2023-05-29T10:23:46;386.33;;;361.33;;
61204;SDS011;47068;55.780;37.520;2023-05-29T10:26:21;378.77;;;354.15;;
61204;SDS011;47068;55.780;37.520;2023-05-29T10:31:35;386.45;;;361.05;;
61204;SDS011;47068;55.780;37.520;2023-05-29T10:37:17;387.88;;;362.58;;
61204;SDS011;47068;55.780;37.520;2023-05-29T10:39:50;396.08;;;370.42;;
61204;SDS011;47068;55.780;37.520;2023-05-29T10:45:00;430.67;;;404.10;;
61204;SDS011;47068;55.780;37.520;2023-05-29T10:49:51;451.77;;;424.35;;
61204;SDS011;47068;55.780;37.520;2023-05-29T10:54:50;494.77;;;465.33;;
61204;SDS011;47068;55.780;37.520;2023-05-29T10:57:17;523.53;;;493.08;;
61204;SDS011;47068;55.780;37.520;2023-05-29T10:59:45;467.58;;;439.33;;
61204;SDS011;47068;55.780;37.520;2023-05-29T11:04:36;511.20;;;481.42;;
61204;SDS011;47068;55.780;37.520;2023-05-29T11:09:37;557.60;;;525.95;;
61204;SDS011;47068;55.780;37.520;2023-05-29T11:15:00;519.13;;;489.05;;
61204;SDS011;47068;55.780;37.520;2023-05-29T11:20:07;541.08;;;508.85;;
61204;SDS011;47068;55.780;37.520;2023-05-29T11:25:21;573.15;;;539.60;;
61204;SDS011;47068;55.780;37.520;2023-05-29T11:30:12;589.33;;;555.55;;
61204;SDS011;47068;55.780;37.520;2023-05-29T11:35:07;599.75;;;565.75;;
61204;SDS011;47068;55.780;37.520;2023-05-29T11:37:42;608.58;;;573.58;;
61204;SDS011;47068;55.780;37.520;2023-05-29T11:40:11;621.90;;;587.38;;
61204;SDS011;47068;55.780;37.520;2023-05-29T11:42:44;609.78;;;576.22;;
61204;SDS011;47068;55.780;37.520;2023-05-29T11:47:50;679.92;;;641.50;;
61204;SDS011;47068;55.780;37.520;2023-05-29T11:50:19;655.28;;;619.00;;
61204;SDS011;47068;55.780;37.520;2023-05-29T11:52:46;720.22;;;679.85;;
61204;SDS011;47068;55.780;37.520;2023-05-29T11:57:37;684.65;;;646.50;;
61204;SDS011;47068;55.780;37.520;2023-05-29T12:02:30;685.13;;;646.90;;
61204;SDS011;47068;55.780;37.520;2023-05-29T12:07:29;511.05;;;481.98;;
61204;SDS011;47068;55.780;37.520;2023-05-29T12:14:51;556.28;;;525.40;;
61204;SDS011;47068;55.780;37.520;2023-05-29T12:17:18;549.83;;;518.33;;
61204;SDS011;47068;55.780;37.520;2023-05-29T12:19:45;474.45;;;446.13;;
61204;SDS011;47068;55.780;37.520;2023-05-29T12:24:37;516.83;;;487.00;;
61204;SDS011;47068;55.780;37.520;2023-05-29T12:29:35;536.40;;;505.60;;
61204;SDS011;47068;55.780;37.520;2023-05-29T12:32:01;531.90;;;501.60;;
61204;SDS011;47068;55.780;37.520;2023-05-29T12:36:51;570.95;;;539.22;;
61204;SDS011;47068;55.780;37.520;2023-05-29T12:41:42;546.35;;;515.60;;
61204;SDS011;47068;55.780;37.520;2023-05-29T12:46:40;611.42;;;575.92;;
61204;SDS011;47068;55.780;37.520;2023-05-29T12:49:16;576.50;;;543.45;;
61204;SDS011;47068;55.780;37.520;2023-05-29T12:51:48;588.58;;;555.05;;
61204;SDS011;47068;55.780;37.520;2023-05-29T12:56:40;532.10;;;501.95;;
61204;SDS011;47068;55.780;37.520;2023-05-29T13:01:32;619.88;;;585.38;;
61204;SDS011;47068;55.780;37.520;2023-05-29T13:06:23;534.67;;;504.40;;
61204;SDS011;47068;55.780;37.520;2023-05-29T13:11:14;512.22;;;483.67;;
61204;SDS011;47068;55.780;37.520;2023-05-29T13:16:05;582.28;;;549.95;;
61204;SDS011;47068;55.780;37.520;2023-05-29T13:18:31;601.33;;;568.17;;
61204;SDS011;47068;55.780;37.520;2023-05-29T13:23:22;664.85;;;628.28;;
61204;SDS011;47068;55.780;37.520;2023-05-29T13:28:14;626.80;;;592.13;;
61204;SDS011;47068;55.780;37.520;2023-05-29T13:30:40;642.47;;;607.25;;
61204;SDS011;47068;55.780;37.520;2023-05-29T13:35:31;701.38;;;662.78;;
61204;SDS011;47068;55.780;37.520;2023-05-29T13:40:22;656.80;;;620.63;;
61204;SDS011;47068;55.780;37.520;2023-05-29T13:45:13;725.67;;;685.40;;
61204;SDS011;47068;55.780;37.520;2023-05-29T13:47:39;737.25;;;697.17;;
61204;SDS011;47068;55.780;37.520;2023-05-29T13:52:31;678.05;;;639.33;;
61204;SDS011;47068;55.780;37.520;2023-05-29T13:54:57;674.28;;;636.67;;
61204;SDS011;47068;55.780;37.520;2023-05-29T13:57:31;725.92;;;685.45;;
61204;SDS011;47068;55.780;37.520;2023-05-29T14:02:22;682.42;;;644.35;;
61204;SDS011;47068;55.780;37.520;2023-05-29T14:07:13;731.25;;;690.63;;
61204;SDS011;47068;55.780;37.520;2023-05-29T14:12:05;751.88;;;710.53;;
61204;SDS011;47068;55.780;37.520;2023-05-29T14:16:57;750.13;;;708.15;;
61204;SDS011;47068;55.780;37.520;2023-05-29T14:21:48;749.28;;;706.75;;
61204;SDS011;47068;55.780;37.520;2023-05-29T14:24:15;761.67;;;719.28;;
61204;SDS011;47068;55.780;37.520;2023-05-29T14:26:42;735.85;;;694.92;;
61204;SDS011;47068;55.780;37.520;2023-05-29T14:29:10;670.97;;;633.97;;
61204;SDS011;47068;55.780;37.520;2023-05-29T14:31:37;691.47;;;652.33;;
61204;SDS011;47068;55.780;37.520;2023-05-29T14:34:02;687.38;;;648.92;;
61204;SDS011;47068;55.780;37.520;2023-05-29T14:38:53;698.83;;;658.47;;
61204;SDS011;47068;55.780;37.520;2023-05-29T14:43:44;699.03;;;658.42;;
61204;SDS011;47068;55.780;37.520;2023-05-29T14:48:35;700.13;;;659.95;;
61204;SDS011;47068;55.780;37.520;2023-05-29T14:53:26;756.45;;;713.28;;
61204;SDS011;47068;55.780;37.520;2023-05-29T14:55:52;768.33;;;724.88;;
61204;SDS011;47068;55.780;37.520;2023-05-29T15:00:43;764.40;;;721.60;;
61204;SDS011;47068;55.780;37.520;2023-05-29T15:05:34;668.08;;;630.78;;
61204;SDS011;47068;55.780;37.520;2023-05-29T15:07:59;733.00;;;692.60;;
61204;SDS011;47068;55.780;37.520;2023-05-29T15:12:51;725.08;;;684.63;;
61204;SDS011;47068;55.780;37.520;2023-05-29T15:15:25;734.72;;;694.40;;
61204;SDS011;47068;55.780;37.520;2023-05-29T15:17:52;719.13;;;680.15;;
61204;SDS011;47068;55.780;37.520;2023-05-29T15:20:24;638.35;;;602.78;;
61204;SDS011;47068;55.780;37.520;2023-05-29T15:22:51;728.03;;;687.47;;
61204;SDS011;47068;55.780;37.520;2023-05-29T15:25:17;744.70;;;703.85;;
61204;SDS011;47068;55.780;37.520;2023-05-29T15:27:44;661.13;;;624.00;;
61204;SDS011;47068;55.780;37.520;2023-05-29T15:30:16;703.60;;;664.30;;
61204;SDS011;47068;55.780;37.520;2023-05-29T15:32:46;687.50;;;649.72;;
61204;SDS011;47068;55.780;37.520;2023-05-29T15:35:13;648.38;;;612.63;;
61204;SDS011;47068;55.780;37.520;2023-05-29T15:37:40;644.55;;;609.10;;
61204;SDS011;47068;55.780;37.520;2023-05-29T15:40:07;718.85;;;678.92;;
61204;SDS011;47068;55.780;37.520;2023-05-29T15:42:34;691.30;;;653.05;;
61204;SDS011;47068;55.780;37.520;2023-05-29T15:45:01;711.80;;;672.28;;
61204;SDS011;47068;55.780;37.520;2023-05-29T15:47:28;717.72;;;677.78;;
61204;SDS011;47068;55.780;37.520;2023-05-29T15:49:55;698.22;;;659.78;;
61204;SDS011;47068;55.780;37.520;2023-05-29T15:52:22;655.13;;;618.80;;
61204;SDS011;47068;55.780;37.520;2023-05-29T15:54:47;675.05;;;637.05;;
61204;SDS011;47068;55.780;37.520;2023-05-29T15:59:38;748.15;;;705.15;;
61204;SDS011;47068;55.780;37.520;2023-05-29T16:04:30;731.95;;;691.03;;
61204;SDS011;47068;55.780;37.520;2023-05-29T16:06:56;756.75;;;714.58;;
61204;SDS011;47068;55.780;37.520;2023-05-29T16:09:22;681.75;;;642.90;;
61204;SDS011;47068;55.780;37.520;2023-05-29T16:11:48;738.35;;;696.53;;
61204;SDS011;47068;55.780;37.520;2023-05-29T16:16:42;678.00;;;639.50;;
61204;SDS011;47068;55.780;37.520;2023-05-29T16:19:07;681.33;;;642.35;;
61204;SDS011;47068;55.780;37.520;2023-05-29T16:23:58;747.88;;;706.15;;
61204;SDS011;47068;55.780;37.520;2023-05-29T16:26:25;748.10;;;706.58;;
61204;SDS011;47068;55.780;37.520;2023-05-29T16:28:55;698.55;;;658.47;;
61204;SDS011;47068;55.780;37.520;2023-05-29T16:31:22;678.33;;;640.13;;
61204;SDS011;47068;55.780;37.520;2023-05-29T16:33:47;683.25;;;643.88;;
61204;SDS011;47068;55.780;37.520;2023-05-29T16:38:38;699.20;;;658.38;;
61204;SDS011;47068;55.780;37.520;2023-05-29T16:43:29;690.92;;;650.45;;
61204;SDS011;47068;55.780;37.520;2023-05-29T16:45:56;749.58;;;707.53;;